Time;durP1;ratioP1;P1;durP2;ratioP2;P2;SDS_P1;SDS_P2;PMS_P1;PMS_P2;Temp;Humidity;BMP_temperature;BMP_pressure;BME280_temperature;BME280_humidity;BME280_pressure;Samples;Min_cycle;Max_cycle;Signal;HPM_P1;HPM_P2
2022/08/14 00:01:36;;;;;;;;;;;487.30;2380.80;;;;;;5071943;28;19927;-57
2022/08/14 00:04:02;;;;;;;;;;;487.30;2380.80;;;;;;5071816;28;19938;-58
2022/08/14 00:06:27;;;;;;;;;;;487.20;2380.80;;;;;;5072008;28;19908;-57
2022/08/14 00:08:54;;;;;;;;;;;487.20;2380.80;;;;;;5072236;28;19909;-57
2022/08/14 00:11:20;;;;;;;;;;;487.20;2380.80;;;;;;5071877;28;19915;-57
2022/08/14 00:13:47;;;;;;;;;;;487.10;2380.80;;;;;;5072007;28;19917;-59
2022/08/14 00:16:13;;;;;;;;;;;487.10;2380.80;;;;;;5071799;28;19912;-57
2022/08/14 00:18:39;;;;;;;;;;;487.10;2380.80;;;;;;5071931;28;19913;-60
2022/08/14 00:21:04;;;;;;;;;;;487.10;2380.80;;;;;;5071593;28;20003;-70
2022/08/14 00:23:30;;;;;;;;;;;487.00;2380.80;;;;;;5071496;28;19952;-59
2022/08/14 00:25:56;;;;;;;;;;;486.90;2380.80;;;;;;5071755;28;19909;-57
2022/08/14 00:28:25;;;;;;;;;;;486.90;2380.80;;;;;;5071693;28;19909;-57
2022/08/14 00:30:56;;;;;;;;;;;486.90;2099.20;;;;;;5071404;28;19912;-57
2022/08/14 00:33:26;;;;;;;;;;;486.90;2201.60;;;;;;5071557;28;19927;-56
2022/08/14 00:35:52;;;;;;;;;;;486.90;2201.60;;;;;;5071361;28;20358;-57
2022/08/14 00:38:18;;;;;;;;;;;486.90;1996.80;;;;;;5071547;28;19916;-69
2022/08/14 00:40:44;;;;;;;;;;;486.90;2380.80;;;;;;5071228;28;19908;-56
2022/08/14 00:43:10;;;;;;;;;;;486.80;2380.80;;;;;;5071256;28;19908;-58
2022/08/14 00:45:36;;;;;;;;;;;486.80;2380.80;;;;;;5071629;28;19908;-57
2022/08/14 00:48:02;;;;;;;;;;;486.80;2380.80;;;;;;5070616;28;19915;-67
2022/08/14 00:50:29;;;;;;;;;;;486.80;2176.00;;;;;;5071443;28;19915;-57
2022/08/14 00:52:55;;;;;;;;;;;486.70;2355.20;;;;;;5071272;28;20373;-56
2022/08/14 00:55:20;;;;;;;;;;;486.70;2380.80;;;;;;5071261;28;19908;-57
2022/08/14 00:58:29;;;;;;;;;;;486.60;2380.80;;;;;;5071489;28;19909;-56
2022/08/14 01:00:33;;;;;;;;;;;486.50;2380.80;;;;;;5070688;28;19927;-57
2022/08/14 01:02:59;;;;;;;;;;;486.40;2380.80;;;;;;5071183;28;19920;-57
2022/08/14 01:05:25;;;;;;;;;;;486.40;2380.80;;;;;;5070796;28;19915;-66
2022/08/14 01:07:52;;;;;;;;;;;486.40;2380.80;;;;;;5070905;28;19991;-57
2022/08/14 01:10:19;;;;;;;;;;;486.40;2380.80;;;;;;5071032;28;20362;-60
2022/08/14 01:12:45;;;;;;;;;;;486.40;2380.80;;;;;;5070681;28;19964;-57
2022/08/14 01:15:10;;;;;;;;;;;486.40;2380.80;;;;;;5070866;28;19909;-57
2022/08/14 01:23:07;;;;;;;;;;;486.60;2201.60;;;;;;5071311;28;20312;-59
2022/08/14 01:25:37;;;;;;;;;;;486.60;2380.80;;;;;;5070911;28;19931;-58
2022/08/14 01:28:02;;;;;;;;;;;486.70;2380.80;;;;;;5070942;28;19909;-58
2022/08/14 01:30:31;;;;;;;;;;;486.80;2380.80;;;;;;5070851;28;20278;-62
2022/08/14 01:32:56;;;;;;;;;;;486.90;2380.80;;;;;;5070886;28;20024;-61
2022/08/14 01:35:22;;;;;;;;;;;487.00;2380.80;;;;;;5070871;28;19944;-65
2022/08/14 01:37:48;;;;;;;;;;;487.00;2380.80;;;;;;5071028;28;19912;-66
2022/08/14 01:40:14;;;;;;;;;;;486.90;2380.80;;;;;;5070850;28;20018;-67
2022/08/14 01:42:43;;;;;;;;;;;486.90;2380.80;;;;;;5070945;28;19962;-66
2022/08/14 01:45:11;;;;;;;;;;;486.90;2380.80;;;;;;5070876;28;20305;-57
2022/08/14 01:47:37;;;;;;;;;;;486.70;2380.80;;;;;;5070675;28;19917;-66
2022/08/14 01:50:05;;;;;;;;;;;486.80;2380.80;;;;;;5070642;28;19909;-67
2022/08/14 01:52:35;;;;;;;;;;;486.70;2380.80;;;;;;5070570;28;19977;-65
2022/08/14 01:55:07;;;;;;;;;;;486.70;2380.80;;;;;;5070721;28;20317;-60
2022/08/14 01:57:36;;;;;;;;;;;486.60;2380.80;;;;;;5070529;28;19995;-69
2022/08/14 02:00:11;;;;;;;;;;;486.60;2380.80;;;;;;5074126;28;19912;-68
2022/08/14 02:02:37;;;;;;;;;;;486.50;2380.80;;;;;;5074514;28;20393;-66
2022/08/14 02:05:03;;;;;;;;;;;486.50;2380.80;;;;;;5074185;28;19908;-56
2022/08/14 02:07:31;;;;;;;;;;;486.50;2380.80;;;;;;5074576;28;19958;-68
2022/08/14 02:09:56;;;;;;;;;;;486.60;2380.80;;;;;;5074458;28;19912;-58
2022/08/14 02:12:23;;;;;;;;;;;486.70;2380.80;;;;;;5073963;28;20281;-57
2022/08/14 02:14:49;;;;;;;;;;;486.60;2380.80;;;;;;5074224;28;19912;-69
2022/08/14 02:17:14;;;;;;;;;;;486.60;2380.80;;;;;;5074378;28;19931;-56
2022/08/14 02:19:40;;;;;;;;;;;486.70;2380.80;;;;;;5073933;28;19977;-57
2022/08/14 02:22:05;;;;;;;;;;;486.70;2380.80;;;;;;5074338;28;19908;-68
2022/08/14 02:24:31;;;;;;;;;;;486.80;2380.80;;;;;;5074018;28;19909;-57
2022/08/14 02:26:58;;;;;;;;;;;486.80;2380.80;;;;;;5074073;28;19908;-57
2022/08/14 02:29:26;;;;;;;;;;;486.80;2380.80;;;;;;5073813;28;19909;-69
2022/08/14 02:31:53;;;;;;;;;;;486.80;2380.80;;;;;;5073702;28;19908;-57
2022/08/14 02:34:25;;;;;;;;;;;486.80;2380.80;;;;;;5073778;28;20417;-67
2022/08/14 02:36:51;;;;;;;;;;;486.80;2380.80;;;;;;5073649;28;20000;-57
2022/08/14 02:39:17;;;;;;;;;;;486.80;2380.80;;;;;;5073868;28;19932;-56
2022/08/14 02:41:43;;;;;;;;;;;486.80;2380.80;;;;;;5073566;28;20298;-67
2022/08/14 02:44:11;;;;;;;;;;;486.80;2380.80;;;;;;5073703;28;19919;-65
2022/08/14 02:46:37;;;;;;;;;;;486.60;2380.80;;;;;;5073652;28;20282;-68
2022/08/14 02:49:03;;;;;;;;;;;486.60;2380.80;;;;;;5073521;28;20370;-68
2022/08/14 02:51:29;;;;;;;;;;;486.70;2380.80;;;;;;5073793;28;19935;-64
2022/08/14 02:53:54;;;;;;;;;;;486.70;2380.80;;;;;;5073293;28;20263;-69
2022/08/14 02:56:20;;;;;;;;;;;486.70;2380.80;;;;;;5073259;28;19908;-57
2022/08/14 02:58:48;;;;;;;;;;;486.80;2380.80;;;;;;5073354;28;19908;-69
2022/08/14 03:01:14;;;;;;;;;;;486.80;2380.80;;;;;;5073024;28;19927;-57
2022/08/14 03:03:40;;;;;;;;;;;486.80;2380.80;;;;;;5073146;28;20000;-58
2022/08/14 03:06:07;;;;;;;;;;;486.80;2380.80;;;;;;5073334;28;20339;-67
2022/08/14 03:08:33;;;;;;;;;;;486.80;2380.80;;;;;;5073060;28;19912;-68
2022/08/14 03:11:06;;;;;;;;;;;486.80;2380.80;;;;;;5072421;28;20366;-57
2022/08/14 03:13:34;;;;;;;;;;;486.80;2380.80;;;;;;5072798;28;20359;-70
2022/08/14 03:16:01;;;;;;;;;;;486.70;2380.80;;;;;;5072886;28;20007;-57
2022/08/14 03:18:27;;;;;;;;;;;486.70;2380.80;;;;;;5073209;28;19909;-58
2022/08/14 03:20:52;;;;;;;;;;;486.70;2380.80;;;;;;5072823;28;19955;-70
2022/08/14 03:23:18;;;;;;;;;;;486.70;2380.80;;;;;;5073102;28;19912;-64
2022/08/14 03:25:45;;;;;;;;;;;486.60;2380.80;;;;;;5072789;28;19908;-58
2022/08/14 03:28:11;;;;;;;;;;;486.50;2380.80;;;;;;5072750;28;19916;-56
2022/08/14 03:30:37;;;;;;;;;;;486.40;2380.80;;;;;;5072761;28;19913;-57
2022/08/14 03:33:03;;;;;;;;;;;461.70;2380.80;;;;;;5072930;28;19921;-56
2022/08/14 03:35:29;;;;;;;;;;;461.70;2380.80;;;;;;5072797;28;20373;-57
2022/08/14 03:38:03;;;;;;;;;;;461.70;2380.80;;;;;;5072870;28;19932;-68
2022/08/14 03:40:29;;;;;;;;;;;461.60;2380.80;;;;;;5072832;28;19916;-57
2022/08/14 03:42:54;;;;;;;;;;;461.60;2380.80;;;;;;5072436;28;20306;-69
2022/08/14 03:45:20;;;;;;;;;;;461.50;2380.80;;;;;;5072632;28;19962;-58
2022/08/14 03:47:45;;;;;;;;;;;461.60;2380.80;;;;;;5072720;28;20381;-69
2022/08/14 03:50:11;;;;;;;;;;;461.60;2380.80;;;;;;5072376;28;19991;-65
2022/08/14 03:52:37;;;;;;;;;;;461.70;2380.80;;;;;;5072459;28;19916;-63
2022/08/14 03:55:07;;;;;;;;;;;461.60;2380.80;;;;;;5072376;28;19915;-57
2022/08/14 03:57:34;;;;;;;;;;;461.70;2380.80;;;;;;5071835;28;19915;-68
2022/08/14 04:00:05;;;;;;;;;;;461.70;2380.80;;;;;;5071938;28;19912;-57
2022/08/14 04:02:30;;;;;;;;;;;486.40;2380.80;;;;;;5071866;28;19924;-57
2022/08/14 04:04:56;;;;;;;;;;;486.50;2380.80;;;;;;5072306;28;19916;-66
2022/08/14 04:07:21;;;;;;;;;;;486.50;2380.80;;;;;;5072039;28;19934;-64
2022/08/14 04:09:47;;;;;;;;;;;486.50;2380.80;;;;;;5072042;28;19931;-67
2022/08/14 04:12:13;;;;;;;;;;;486.50;2380.80;;;;;;5071592;28;19915;-68
2022/08/14 04:14:38;;;;;;;;;;;486.60;2380.80;;;;;;5071956;28;19915;-57
2022/08/14 04:17:04;;;;;;;;;;;486.60;2380.80;;;;;;5071747;28;20358;-56
2022/08/14 04:19:29;;;;;;;;;;;486.60;2380.80;;;;;;5072212;28;19924;-69
2022/08/14 04:21:55;;;;;;;;;;;486.60;2380.80;;;;;;5071164;28;19920;-69
2022/08/14 04:24:21;;;;;;;;;;;486.70;2380.80;;;;;;5071655;28;19908;-57
2022/08/14 04:26:46;;;;;;;;;;;486.70;2380.80;;;;;;5071777;28;19915;-57
2022/08/14 04:29:12;;;;;;;;;;;486.70;2380.80;;;;;;5071621;28;20306;-57
2022/08/14 04:31:38;;;;;;;;;;;486.60;2380.80;;;;;;5071511;28;19908;-56
2022/08/14 04:34:04;;;;;;;;;;;486.80;2380.80;;;;;;5071426;28;19924;-56
2022/08/14 04:36:30;;;;;;;;;;;486.80;2380.80;;;;;;5071759;28;20673;-57
2022/08/14 04:44:24;;;;;;;;;;;486.80;2380.80;;;;;;5071645;28;19915;-68
2022/08/14 04:49:35;;;;;;;;;;;486.80;2380.80;;;;;;5071248;28;19954;-57
2022/08/14 04:52:03;;;;;;;;;;;486.90;2380.80;;;;;;5071261;28;20011;-57
2022/08/14 04:54:29;;;;;;;;;;;486.90;2380.80;;;;;;5071342;28;19999;-60
2022/08/14 04:56:55;;;;;;;;;;;486.90;2380.80;;;;;;5071153;28;19909;-68
2022/08/14 04:59:21;;;;;;;;;;;487.00;2380.80;;;;;;5071048;28;19915;-56
2022/08/14 05:01:46;;;;;;;;;;;487.00;2380.80;;;;;;5071048;28;19921;-66
2022/08/14 05:04:12;;;;;;;;;;;486.90;2380.80;;;;;;5071185;28;19987;-56
2022/08/14 05:06:38;;;;;;;;;;;486.90;2380.80;;;;;;5071241;28;19935;-56
2022/08/14 05:09:04;;;;;;;;;;;486.80;2380.80;;;;;;5070933;28;19908;-57
2022/08/14 05:11:32;;;;;;;;;;;487.00;2380.80;;;;;;5071282;28;19908;-66
2022/08/14 05:13:58;;;;;;;;;;;487.10;2380.80;;;;;;5071099;28;19916;-56
2022/08/14 05:16:29;;;;;;;;;;;487.10;2380.80;;;;;;5070840;28;19916;-67
2022/08/14 05:18:55;;;;;;;;;;;487.10;2380.80;;;;;;5071185;28;19931;-68
2022/08/14 05:21:21;;;;;;;;;;;487.10;2380.80;;;;;;5070933;28;20255;-56
2022/08/14 05:23:47;;;;;;;;;;;487.20;2380.80;;;;;;5071043;28;20024;-57
2022/08/14 05:26:15;;;;;;;;;;;487.20;2380.80;;;;;;5070820;28;19909;-69
2022/08/14 05:28:43;;;;;;;;;;;512.00;2380.80;;;;;;5070924;28;19909;-57
2022/08/14 05:31:08;;;;;;;;;;;512.00;2380.80;;;;;;5071048;28;19917;-59
2022/08/14 05:33:35;;;;;;;;;;;512.00;2380.80;;;;;;5072718;28;20393;-70
2022/08/14 05:36:02;;;;;;;;;;;512.00;2380.80;;;;;;5074981;28;19909;-57
2022/08/14 05:38:32;;;;;;;;;;;487.30;2380.80;;;;;;5074806;28;19913;-69
2022/08/14 05:40:59;;;;;;;;;;;512.00;2380.80;;;;;;5075219;28;19908;-68
2022/08/14 05:43:24;;;;;;;;;;;512.00;2380.80;;;;;;5074815;28;19953;-56
2022/08/14 05:45:50;;;;;;;;;;;487.30;2380.80;;;;;;5074968;28;19909;-57
2022/08/14 05:48:15;;;;;;;;;;;487.30;2380.80;;;;;;5074724;28;19908;-69
2022/08/14 05:50:41;;;;;;;;;;;512.00;2380.80;;;;;;5074525;28;19962;-65
2022/08/14 05:53:07;;;;;;;;;;;487.30;2380.80;;;;;;5074685;28;20282;-56
2022/08/14 05:55:32;;;;;;;;;;;512.00;2380.80;;;;;;5074868;28;19909;-69
2022/08/14 05:57:59;;;;;;;;;;;487.20;2380.80;;;;;;5074732;28;19913;-57
2022/08/14 06:00:27;;;;;;;;;;;487.20;2380.80;;;;;;5074316;28;19920;-57
2022/08/14 06:02:54;;;;;;;;;;;487.20;2380.80;;;;;;5074441;28;19921;-69
2022/08/14 06:05:21;;;;;;;;;;;487.10;2380.80;;;;;;5074357;28;20357;-56
2022/08/14 06:07:47;;;;;;;;;;;487.10;2380.80;;;;;;5074426;28;19908;-69
2022/08/14 06:10:12;;;;;;;;;;;487.20;2380.80;;;;;;5074107;28;19915;-57
2022/08/14 06:12:38;;;;;;;;;;;512.00;2380.80;;;;;;5074172;28;20286;-69
2022/08/14 06:15:05;;;;;;;;;;;487.30;2380.80;;;;;;5074053;28;20422;-57
2022/08/14 06:17:30;;;;;;;;;;;512.00;2380.80;;;;;;5073948;28;19909;-66
2022/08/14 06:19:56;;;;;;;;;;;487.30;2380.80;;;;;;5074287;28;20004;-58
2022/08/14 06:22:22;;;;;;;;;;;487.30;2380.80;;;;;;5073926;28;19909;-69
2022/08/14 06:24:47;;;;;;;;;;;512.00;2380.80;;;;;;5074046;28;19908;-68
2022/08/14 06:27:13;;;;;;;;;;;512.00;2380.80;;;;;;5073722;28;19915;-69
2022/08/14 06:29:38;;;;;;;;;;;512.00;2380.80;;;;;;5074146;28;19912;-69
2022/08/14 06:32:04;;;;;;;;;;;512.10;2380.80;;;;;;5073966;28;19962;-69
2022/08/14 06:34:30;;;;;;;;;;;512.10;2380.80;;;;;;5073815;28;19939;-58
2022/08/14 06:36:55;;;;;;;;;;;512.20;2380.80;;;;;;5073964;28;20381;-69
2022/08/14 06:39:22;;;;;;;;;;;512.20;2380.80;;;;;;5073586;28;19962;-69
2022/08/14 06:41:47;;;;;;;;;;;512.20;2380.80;;;;;;5073901;28;20317;-57
2022/08/14 06:44:13;;;;;;;;;;;512.20;2380.80;;;;;;5072784;28;19909;-69
2022/08/14 06:46:39;;;;;;;;;;;512.20;2380.80;;;;;;5073349;28;20354;-61
2022/08/14 06:49:04;;;;;;;;;;;512.20;2380.80;;;;;;5073509;28;19960;-57
2022/08/14 06:51:30;;;;;;;;;;;512.20;2380.80;;;;;;5073459;28;19909;-56
2022/08/14 06:53:56;;;;;;;;;;;512.30;2380.80;;;;;;5073356;28;19917;-69
2022/08/14 06:56:22;;;;;;;;;;;512.40;2380.80;;;;;;5073631;28;20270;-69
2022/08/14 06:58:48;;;;;;;;;;;512.40;2380.80;;;;;;5073634;28;19969;-65
2022/08/14 07:06:42;;;;;;;;;;;512.70;2380.80;;;;;;5073000;28;19915;-70
2022/08/14 07:09:10;;;;;;;;;;;512.60;2380.80;;;;;;5073334;28;19908;-70
2022/08/14 07:11:36;;;;;;;;;;;512.60;2380.80;;;;;;5073388;28;20379;-65
2022/08/14 07:14:02;;;;;;;;;;;512.70;2380.80;;;;;;5072758;28;19916;-59
2022/08/14 07:16:28;;;;;;;;;;;512.80;2380.80;;;;;;5073190;28;19991;-58
2022/08/14 07:18:53;;;;;;;;;;;512.90;2380.80;;;;;;5072919;28;19924;-71
2022/08/14 07:21:19;;;;;;;;;;;512.90;2380.80;;;;;;5072983;28;20319;-59
2022/08/14 07:23:45;;;;;;;;;;;512.80;2380.80;;;;;;5072966;28;19909;-66
2022/08/14 07:26:12;;;;;;;;;;;512.80;2380.80;;;;;;5073047;28;19916;-62
2022/08/14 07:28:38;;;;;;;;;;;512.90;2380.80;;;;;;5072890;28;19962;-61
2022/08/14 07:31:06;;;;;;;;;;;537.60;2406.40;;;;;;5072674;28;19919;-60
2022/08/14 07:33:51;;;;;;;;;;;537.70;2406.40;;;;;;5072487;28;19921;-58
2022/08/14 07:36:18;;;;;;;;;;;537.90;2406.40;;;;;;5072430;28;19975;-70
2022/08/14 07:38:43;;;;;;;;;;;538.20;2406.40;;;;;;5072648;28;19948;-62
2022/08/14 07:41:09;;;;;;;;;;;538.30;2406.40;;;;;;5072074;28;20338;-62
2022/08/14 07:43:36;;;;;;;;;;;563.30;2432.00;;;;;;5072397;28;19948;-70
2022/08/14 07:46:02;;;;;;;;;;;538.40;2406.40;;;;;;5070598;28;19947;-61
2022/08/14 07:48:28;;;;;;;;;;;538.40;2406.40;;;;;;5070516;28;19909;-59
2022/08/14 07:50:54;;;;;;;;;;;538.30;2406.40;;;;;;5070764;28;20488;-69
2022/08/14 07:53:20;;;;;;;;;;;538.20;2406.40;;;;;;5070213;28;19916;-69
2022/08/14 07:55:46;;;;;;;;;;;538.30;2406.40;;;;;;5070309;28;20003;-69
2022/08/14 07:58:12;;;;;;;;;;;538.20;2406.40;;;;;;5070149;28;19913;-68
2022/08/14 08:00:38;;;;;;;;;;;538.30;2406.40;;;;;;5068536;28;20255;-66
2022/08/14 08:03:08;;;;;;;;;;;538.40;2406.40;;;;;;5069955;28;19923;-71
2022/08/14 08:05:35;;;;;;;;;;;538.50;2406.40;;;;;;5069935;28;19912;-63
2022/08/14 08:08:01;;;;;;;;;;;538.50;2406.40;;;;;;5070094;28;19909;-65
2022/08/14 08:10:30;;;;;;;;;;;538.40;2406.40;;;;;;5070197;28;19988;-70
2022/08/14 08:13:09;;;;;;;;;;;538.40;2406.40;;;;;;5068184;28;20286;-70
2022/08/14 08:15:37;;;;;;;;;;;538.50;2406.40;;;;;;5069940;28;20412;-59
2022/08/14 08:18:03;;;;;;;;;;;538.40;2406.40;;;;;;5069663;28;19912;-70
2022/08/14 08:20:30;;;;;;;;;;;538.40;2406.40;;;;;;5069912;28;19917;-66
2022/08/14 08:22:57;;;;;;;;;;;538.50;2406.40;;;;;;5069989;28;19919;-59
2022/08/14 08:25:28;;;;;;;;;;;538.50;2406.40;;;;;;5069210;28;19934;-68
2022/08/14 08:28:14;;;;;;;;;;;538.50;2406.40;;;;;;5069358;28;19913;-61
2022/08/14 08:30:42;;;;;;;;;;;538.50;2406.40;;;;;;5069212;28;19913;-61
2022/08/14 08:33:09;;;;;;;;;;;538.40;2406.40;;;;;;5069663;28;19924;-71
2022/08/14 08:35:35;;;;;;;;;;;538.40;2406.40;;;;;;5069418;28;20286;-68
2022/08/14 08:38:02;;;;;;;;;;;538.50;2406.40;;;;;;5069026;28;20317;-62
2022/08/14 08:40:30;;;;;;;;;;;538.40;2406.40;;;;;;5069530;28;20289;-60
2022/08/14 08:42:56;;;;;;;;;;;538.40;2406.40;;;;;;5069457;28;20468;-66
2022/08/14 08:45:22;;;;;;;;;;;538.30;2406.40;;;;;;5069282;28;19908;-60
2022/08/14 08:47:49;;;;;;;;;;;538.40;2406.40;;;;;;5069171;28;19935;-69
2022/08/14 08:50:29;;;;;;;;;;;538.20;2406.40;;;;;;5068968;28;20273;-70
2022/08/14 08:52:56;;;;;;;;;;;538.20;2406.40;;;;;;5068522;28;19916;-68
2022/08/14 08:55:25;;;;;;;;;;;538.50;2406.40;;;;;;5069042;28;19991;-64
2022/08/14 08:57:54;;;;;;;;;;;538.50;2406.40;;;;;;5068788;28;19940;-67
2022/08/14 09:00:20;;;;;;;;;;;563.20;2432.00;;;;;;5068806;28;19958;-58
2022/08/14 09:02:56;;;;;;;;;;;563.40;2432.00;;;;;;5069187;28;20367;-68
2022/08/14 09:05:23;;;;;;;;;;;563.20;2432.00;;;;;;5068594;28;19962;-71
2022/08/14 09:07:48;;;;;;;;;;;538.50;2406.40;;;;;;5068479;28;19912;-69
2022/08/14 09:10:14;;;;;;;;;;;538.50;2406.40;;;;;;5068841;28;19912;-58
2022/08/14 09:12:40;;;;;;;;;;;538.50;2406.40;;;;;;5068710;28;20030;-61
2022/08/14 09:15:06;;;;;;;;;;;538.30;2406.40;;;;;;5069073;28;19912;-69
2022/08/14 09:17:32;;;;;;;;;;;538.30;2406.40;;;;;;5068500;28;19920;-69
2022/08/14 09:19:58;;;;;;;;;;;538.40;2406.40;;;;;;5069030;28;19913;-66
2022/08/14 09:22:24;;;;;;;;;;;538.30;2406.40;;;;;;5069164;28;19909;-69
2022/08/14 09:24:50;;;;;;;;;;;538.40;2406.40;;;;;;5068962;28;20317;-65
2022/08/14 09:27:16;;;;;;;;;;;538.30;2406.40;;;;;;5068799;28;19908;-58
2022/08/14 09:29:41;;;;;;;;;;;538.40;2406.40;;;;;;5068714;28;19922;-67
2022/08/14 09:32:08;;;;;;;;;;;538.50;2406.40;;;;;;5068505;28;20429;-68
2022/08/14 09:34:52;;;;;;;;;;;538.50;2406.40;;;;;;5068604;28;20007;-68
2022/08/14 09:37:17;;;;;;;;;;;538.40;2406.40;;;;;;5068776;28;20358;-61
2022/08/14 09:39:49;;;;;;;;;;;538.40;2406.40;;;;;;5068626;28;19913;-59
2022/08/14 09:42:21;;;;;;;;;;;538.20;2406.40;;;;;;5068647;28;20011;-67
2022/08/14 09:44:56;;;;;;;;;;;538.20;2406.40;;;;;;5068267;28;20366;-58
2022/08/14 09:47:38;;;;;;;;;;;538.40;2406.40;;;;;;5068681;28;20007;-61
2022/08/14 09:50:14;;;;;;;;;;;538.50;2406.40;;;;;;5068546;28;19912;-67
2022/08/14 09:52:47;;;;;;;;;;;538.40;2406.40;;;;;;5068556;28;19966;-58
2022/08/14 09:55:17;;;;;;;;;;;538.30;2406.40;;;;;;5068612;28;19912;-65
2022/08/14 09:57:44;;;;;;;;;;;538.30;2406.40;;;;;;5068520;28;19913;-67
2022/08/14 10:00:13;;;;;;;;;;;538.30;2406.40;;;;;;5068364;28;20358;-62
2022/08/14 10:02:49;;;;;;;;;;;538.30;2406.40;;;;;;5068552;28;19932;-63
2022/08/14 10:05:25;;;;;;;;;;;538.30;2406.40;;;;;;5068535;28;20274;-66
2022/08/14 10:07:52;;;;;;;;;;;538.20;2406.40;;;;;;5068194;28;19915;-61
2022/08/14 10:10:29;;;;;;;;;;;538.10;2406.40;;;;;;5068036;28;20355;-68
2022/08/14 10:12:55;;;;;;;;;;;538.20;2406.40;;;;;;5068373;28;20010;-67
2022/08/14 10:15:23;;;;;;;;;;;538.40;2406.40;;;;;;5068318;28;20003;-66
2022/08/14 10:17:49;;;;;;;;;;;538.50;2406.40;;;;;;5068517;28;19917;-63
2022/08/14 10:20:16;;;;;;;;;;;538.50;2406.40;;;;;;5071095;28;20462;-62
2022/08/14 10:22:42;;;;;;;;;;;563.20;2432.00;;;;;;5071487;28;19909;-66
2022/08/14 10:25:10;;;;;;;;;;;538.50;2406.40;;;;;;5072100;28;20410;-61
2022/08/14 10:27:36;;;;;;;;;;;538.50;2406.40;;;;;;5071951;28;19912;-65
2022/08/14 10:30:03;;;;;;;;;;;538.30;2406.40;;;;;;5071585;28;19909;-62
2022/08/14 10:32:29;;;;;;;;;;;538.20;2406.40;;;;;;5071801;28;20629;-60
2022/08/14 10:35:08;;;;;;;;;;;538.10;2406.40;;;;;;5071697;28;19912;-58
2022/08/14 10:37:38;;;;;;;;;;;538.10;2406.40;;;;;;5071494;28;19919;-68
2022/08/14 10:40:03;;;;;;;;;;;537.80;2406.40;;;;;;5071778;28;19908;-65
2022/08/14 10:42:36;;;;;;;;;;;538.10;2406.40;;;;;;5071796;28;20007;-62
2022/08/14 10:45:02;;;;;;;;;;;538.00;2406.40;;;;;;5071319;28;19908;-66
2022/08/14 10:47:38;;;;;;;;;;;538.00;2406.40;;;;;;5071490;28;19912;-68
2022/08/14 10:50:05;;;;;;;;;;;538.00;2406.40;;;;;;5071074;28;19929;-62
2022/08/14 10:52:33;;;;;;;;;;;538.10;2406.40;;;;;;5071277;28;19916;-64
2022/08/14 10:55:12;;;;;;;;;;;538.10;2406.40;;;;;;5071590;28;19912;-68
2022/08/14 10:57:51;;;;;;;;;;;538.10;2406.40;;;;;;5071959;28;19943;-66
2022/08/14 11:00:19;;;;;;;;;;;538.00;2406.40;;;;;;5073255;28;20263;-64
2022/08/14 11:02:55;;;;;;;;;;;538.20;2406.40;;;;;;5073371;28;19917;-66
2022/08/14 11:05:24;;;;;;;;;;;538.20;2406.40;;;;;;5073225;28;19909;-67
2022/08/14 11:07:55;;;;;;;;;;;538.20;2406.40;;;;;;5073315;28;19913;-57
2022/08/14 11:10:25;;;;;;;;;;;538.20;2406.40;;;;;;5073108;28;19915;-65
2022/08/14 11:12:54;;;;;;;;;;;538.20;2406.40;;;;;;5072951;28;19912;-58
2022/08/14 11:15:23;;;;;;;;;;;538.30;2406.40;;;;;;5073170;28;19917;-62
2022/08/14 11:17:50;;;;;;;;;;;538.50;2406.40;;;;;;5073041;28;20379;-67
2022/08/14 11:20:16;;;;;;;;;;;563.20;2432.00;;;;;;5073159;28;19908;-58
2022/08/14 11:22:42;;;;;;;;;;;563.40;2432.00;;;;;;5072793;28;19995;-66
2022/08/14 11:25:14;;;;;;;;;;;563.50;2432.00;;;;;;5073027;28;19909;-60
2022/08/14 11:27:42;;;;;;;;;;;563.40;2432.00;;;;;;5072769;28;19999;-59
2022/08/14 11:30:12;;;;;;;;;;;563.40;2432.00;;;;;;5072462;28;19920;-65
2022/08/14 11:32:39;;;;;;;;;;;563.40;2432.00;;;;;;5072464;28;19978;-67
2022/08/14 11:35:04;;;;;;;;;;;563.30;2432.00;;;;;;5072630;28;19939;-69
2022/08/14 11:37:32;;;;;;;;;;;563.20;2432.00;;;;;;5070789;28;19912;-63
2022/08/14 11:40:01;;;;;;;;;;;538.50;2406.40;;;;;;5071541;28;19909;-65
2022/08/14 11:42:27;;;;;;;;;;;538.50;2406.40;;;;;;5071215;28;19915;-59
2022/08/14 11:44:55;;;;;;;;;;;538.50;2406.40;;;;;;5070891;28;19913;-69
2022/08/14 11:47:21;;;;;;;;;;;563.30;2432.00;;;;;;5068677;28;19909;-62
2022/08/14 11:49:47;;;;;;;;;;;563.70;2432.00;;;;;;5072032;28;19920;-58
2022/08/14 11:52:18;;;;;;;;;;;563.90;2432.00;;;;;;5072065;28;20327;-61
2022/08/14 11:54:45;;;;;;;;;;;564.10;2432.00;;;;;;5069458;28;19921;-61
2022/08/14 11:57:15;;;;;;;;;;;588.80;2432.00;;;;;;5070305;28;19908;-61
2022/08/14 11:59:41;;;;;;;;;;;588.90;2432.00;;;;;;5069945;28;19936;-64
2022/08/14 12:02:11;;;;;;;;;;;589.10;2432.00;;;;;;5070150;28;20294;-62
2022/08/14 12:04:47;;;;;;;;;;;589.30;2432.00;;;;;;5070274;28;19908;-65
2022/08/14 12:07:12;;;;;;;;;;;589.70;2432.00;;;;;;5070047;28;19909;-65
2022/08/14 12:09:38;;;;;;;;;;;614.70;2432.00;;;;;;5070121;28;19915;-66
2022/08/14 12:12:12;;;;;;;;;;;614.80;2432.00;;;;;;5069835;28;19919;-62
2022/08/14 12:14:48;;;;;;;;;;;614.90;2432.00;;;;;;5069834;28;19916;-64
2022/08/14 12:17:14;;;;;;;;;;;615.10;2432.00;;;;;;5069674;28;20341;-65
2022/08/14 12:19:47;;;;;;;;;;;615.20;2432.00;;;;;;5069373;28;19957;-63
2022/08/14 12:22:13;;;;;;;;;;;615.20;2432.00;;;;;;5069583;28;19919;-68
2022/08/14 12:24:41;;;;;;;;;;;615.10;2432.00;;;;;;5069964;28;19912;-60
2022/08/14 12:27:06;;;;;;;;;;;615.10;2432.00;;;;;;5069996;28;20013;-66
2022/08/14 12:29:32;;;;;;;;;;;615.20;2432.00;;;;;;5069261;28;20378;-67
2022/08/14 12:31:59;;;;;;;;;;;640.00;2432.00;;;;;;5069378;28;19924;-65
2022/08/14 12:34:29;;;;;;;;;;;640.10;2432.00;;;;;;5068869;28;19967;-61
2022/08/14 12:37:04;;;;;;;;;;;640.20;2432.00;;;;;;5069484;28;20451;-55
2022/08/14 12:39:31;;;;;;;;;;;640.20;2432.00;;;;;;5069351;28;20321;-63
2022/08/14 12:42:05;;;;;;;;;;;640.10;2432.00;;;;;;5069109;28;20366;-63
2022/08/14 12:44:32;;;;;;;;;;;640.10;2432.00;;;;;;5068549;28;20371;-58
2022/08/14 12:47:04;;;;;;;;;;;640.10;2432.00;;;;;;5069031;28;20453;-58
2022/08/14 12:49:30;;;;;;;;;;;640.20;2432.00;;;;;;5069402;28;19954;-66
2022/08/14 12:51:59;;;;;;;;;;;640.30;2432.00;;;;;;5069464;28;19912;-61
2022/08/14 12:54:25;;;;;;;;;;;640.50;2432.00;;;;;;5068992;28;19978;-64
2022/08/14 12:57:01;;;;;;;;;;;640.60;2432.00;;;;;;5068913;28;19908;-58
2022/08/14 12:59:34;;;;;;;;;;;640.60;2432.00;;;;;;5068612;28;20381;-62
2022/08/14 13:02:00;;;;;;;;;;;640.30;2432.00;;;;;;5068975;28;19982;-62
2022/08/14 13:04:28;;;;;;;;;;;640.10;2432.00;;;;;;5068914;28;20339;-63
2022/08/14 13:06:54;;;;;;;;;;;640.10;2432.00;;;;;;5068898;28;20375;-60
2022/08/14 13:09:20;;;;;;;;;;;640.20;2432.00;;;;;;5069215;28;19924;-65
2022/08/14 13:11:50;;;;;;;;;;;640.10;2432.00;;;;;;5068484;28;20401;-68
2022/08/14 13:14:17;;;;;;;;;;;640.10;2432.00;;;;;;5068550;28;19925;-58
2022/08/14 13:16:44;;;;;;;;;;;640.20;2432.00;;;;;;5068231;28;19950;-62
2022/08/14 13:19:11;;;;;;;;;;;640.10;2432.00;;;;;;5069346;28;19913;-62
2022/08/14 13:21:38;;;;;;;;;;;640.10;2432.00;;;;;;5069805;28;19916;-62
2022/08/14 13:24:03;;;;;;;;;;;640.10;2432.00;;;;;;5069402;28;20003;-62
2022/08/14 13:26:31;;;;;;;;;;;640.10;2432.00;;;;;;5069521;28;19999;-67
2022/08/14 13:28:58;;;;;;;;;;;640.00;2432.00;;;;;;5068885;28;19909;-66
2022/08/14 13:31:26;;;;;;;;;;;640.00;2432.00;;;;;;5066551;28;19913;-64
2022/08/14 13:33:52;;;;;;;;;;;640.00;2432.00;;;;;;5069346;28;19928;-67
2022/08/14 13:36:17;;;;;;;;;;;640.00;2432.00;;;;;;5069377;28;19909;-64
2022/08/14 13:38:43;;;;;;;;;;;615.30;2432.00;;;;;;5068983;28;19920;-65
2022/08/14 13:41:10;;;;;;;;;;;640.00;2432.00;;;;;;5069933;28;20410;-64
2022/08/14 13:43:38;;;;;;;;;;;640.20;2432.00;;;;;;5069324;28;19909;-67
2022/08/14 13:46:04;;;;;;;;;;;640.20;2432.00;;;;;;5069039;28;19909;-63
2022/08/14 13:48:30;;;;;;;;;;;640.20;2432.00;;;;;;5069438;28;19966;-66
2022/08/14 13:50:58;;;;;;;;;;;640.30;2432.00;;;;;;5069302;28;19916;-65
2022/08/14 13:53:24;;;;;;;;;;;640.40;2432.00;;;;;;5069200;28;19917;-60
2022/08/14 13:55:50;;;;;;;;;;;640.40;2432.00;;;;;;5073232;28;19958;-64
2022/08/14 13:58:18;;;;;;;;;;;640.30;2432.00;;;;;;5073086;28;20438;-64
2022/08/14 14:00:45;;;;;;;;;;;640.20;2432.00;;;;;;5072356;28;19960;-68
2022/08/14 14:03:10;;;;;;;;;;;640.20;2432.00;;;;;;5069408;28;19913;-59